createdAt,value
2023-02-11T00:00:19.557Z,35.67
2023-02-11T00:02:48.181Z,37.93
2023-02-11T00:05:18.658Z,38.20
2023-02-11T00:07:46.898Z,39.30
2023-02-11T00:10:15.334Z,36.97
2023-02-11T00:12:44.745Z,36.40
2023-02-11T00:15:13.009Z,36.80
2023-02-11T00:17:43.173Z,38.77
2023-02-11T00:20:11.727Z,36.17
2023-02-11T00:22:39.698Z,36.93
2023-02-11T00:25:08.979Z,38.93
2023-02-11T00:27:38.343Z,38.20
2023-02-11T00:30:09.121Z,41.77
2023-02-11T00:32:39.424Z,34.77
2023-02-11T00:35:11.496Z,36.13
2023-02-11T00:37:40.650Z,41.27
2023-02-11T00:40:16.046Z,42.00
2023-02-11T00:42:44.077Z,39.93
2023-02-11T00:45:14.813Z,43.70
2023-02-11T00:47:42.804Z,39.63
2023-02-11T00:50:11.037Z,35.97
2023-02-11T00:52:39.154Z,41.73
2023-02-11T00:55:09.150Z,44.17
2023-02-11T00:57:37.205Z,40.27
2023-02-11T01:00:08.550Z,39.30
2023-02-11T01:02:37.967Z,40.83
2023-02-11T01:05:09.295Z,40.27
2023-02-11T01:07:40.257Z,40.13
2023-02-11T01:10:08.609Z,35.13
2023-02-11T01:12:36.703Z,43.03
2023-02-11T01:15:05.570Z,37.67
2023-02-11T01:17:34.460Z,36.67
2023-02-11T01:20:08.021Z,40.83
2023-02-11T01:22:40.618Z,42.87
2023-02-11T01:25:09.757Z,41.23
2023-02-11T01:27:38.161Z,39.87
2023-02-11T01:30:08.135Z,40.40
2023-02-11T01:32:42.039Z,39.93
2023-02-11T01:35:11.667Z,42.73
2023-02-11T01:37:41.863Z,38.10
2023-02-11T01:40:19.410Z,40.57
2023-02-11T01:42:50.683Z,42.00
2023-02-11T01:45:59.178Z,39.70
2023-02-11T01:48:32.643Z,42.80
2023-02-11T01:51:05.362Z,39.07
2023-02-11T01:53:52.189Z,39.13
2023-02-11T01:56:38.756Z,42.77
2023-02-11T01:59:13.884Z,43.57
2023-02-11T02:01:43.411Z,38.40
2023-02-11T02:04:11.790Z,36.50
2023-02-11T02:06:46.457Z,40.77
2023-02-11T02:09:18.944Z,39.93
2023-02-11T02:11:47.072Z,43.83
2023-02-11T02:14:15.175Z,40.43
2023-02-11T02:16:43.293Z,43.33
2023-02-11T02:19:49.960Z,38.00
2023-02-11T02:22:48.988Z,39.37
2023-02-11T02:25:29.250Z,37.40
2023-02-11T02:28:04.310Z,38.97
2023-02-11T02:31:01.506Z,42.00
2023-02-11T02:33:42.325Z,38.90
2023-02-11T02:36:15.988Z,37.53
2023-02-11T02:38:48.816Z,40.00
2023-02-11T02:41:18.093Z,34.70
2023-02-11T02:43:49.042Z,30.93
2023-02-11T02:46:19.219Z,32.53
2023-02-11T02:48:50.583Z,32.47
2023-02-11T02:51:40.886Z,38.03
2023-02-11T02:54:28.494Z,36.23
2023-02-11T02:56:59.338Z,30.77
2023-02-11T02:59:35.990Z,32.23
2023-02-11T03:02:10.803Z,35.50
2023-02-11T03:04:46.866Z,32.90
2023-02-11T03:07:20.894Z,36.30
2023-02-11T03:09:52.650Z,33.37
2023-02-11T03:12:21.301Z,32.80
2023-02-11T03:14:51.200Z,31.57
2023-02-11T03:17:19.673Z,32.23
2023-02-11T03:19:50.896Z,37.17
2023-02-11T03:22:21.411Z,35.90
2023-02-11T03:24:49.943Z,32.00
2023-02-11T03:27:23.090Z,32.17
2023-02-11T03:29:54.980Z,35.27
2023-02-11T03:32:27.085Z,35.37
2023-02-11T03:34:58.984Z,33.20
2023-02-11T03:37:32.099Z,35.17
2023-02-11T03:40:02.403Z,30.93
2023-02-11T03:42:34.661Z,30.20
2023-02-11T03:45:06.922Z,34.20
2023-02-11T03:47:37.032Z,29.33
2023-02-11T03:50:09.200Z,34.43
2023-02-11T03:52:38.345Z,31.03
2023-02-11T03:55:09.500Z,35.67
2023-02-11T03:57:37.528Z,34.30
2023-02-11T04:00:07.026Z,34.13
2023-02-11T04:02:40.461Z,30.63
2023-02-11T04:05:11.560Z,34.57
2023-02-11T04:07:39.595Z,31.70
2023-02-11T04:10:08.607Z,31.47
2023-02-11T04:12:36.718Z,30.57
2023-02-11T04:15:05.263Z,28.23
2023-02-11T04:17:33.239Z,29.83
2023-02-11T04:20:01.331Z,27.00
2023-02-11T04:22:30.887Z,30.37
2023-02-11T04:24:59.047Z,26.57
2023-02-11T04:27:27.007Z,28.33
2023-02-11T04:29:55.278Z,28.97
2023-02-11T04:32:23.329Z,30.60
2023-02-11T04:34:51.937Z,27.80
2023-02-11T04:37:19.926Z,27.63
2023-02-11T04:39:49.528Z,24.37
2023-02-11T04:42:17.592Z,24.90
2023-02-11T04:44:45.613Z,27.23
2023-02-11T04:47:15.297Z,30.40
2023-02-11T04:49:43.556Z,25.60
2023-02-11T04:52:11.777Z,28.13
2023-02-11T04:54:40.088Z,25.47
2023-02-11T04:57:09.595Z,30.93
2023-02-11T04:59:37.629Z,30.37
2023-02-11T05:02:05.739Z,28.87
2023-02-11T05:04:33.846Z,28.60
2023-02-11T05:07:02.126Z,28.63
2023-02-11T05:09:30.216Z,29.13
2023-02-11T05:11:58.163Z,28.87
2023-02-11T05:14:27.725Z,28.30
2023-02-11T05:16:55.695Z,33.07
2023-02-11T05:19:23.651Z,28.80
2023-02-11T05:22:02.016Z,31.63
2023-02-11T05:24:31.080Z,32.53
2023-02-11T05:26:59.097Z,27.33
2023-02-11T05:29:28.900Z,27.03
2023-02-11T05:31:56.916Z,29.97
2023-02-11T05:34:25.014Z,29.27
2023-02-11T05:36:53.015Z,25.27
2023-02-11T05:39:21.045Z,28.80
2023-02-11T05:41:49.002Z,24.60
2023-02-11T05:44:17.024Z,32.40
2023-02-11T05:46:46.516Z,27.50
2023-02-11T05:49:14.551Z,36.20
2023-02-11T05:51:42.461Z,30.47
2023-02-11T05:54:10.555Z,25.77
2023-02-11T05:56:38.571Z,27.30
2023-02-11T05:59:06.654Z,27.93
2023-02-11T06:01:34.738Z,27.27
2023-02-11T06:04:04.246Z,33.00
2023-02-11T06:06:32.677Z,28.07
2023-02-11T06:09:00.726Z,27.73
2023-02-11T06:11:28.748Z,30.57
2023-02-11T06:13:56.742Z,30.07
2023-02-11T06:16:24.974Z,23.03
2023-02-11T06:18:53.131Z,27.27
2023-02-11T06:21:25.069Z,27.73
2023-02-11T06:23:54.660Z,27.53
2023-02-11T06:26:24.774Z,27.67
2023-02-11T06:28:53.144Z,27.00
2023-02-11T06:31:21.379Z,27.00
2023-02-11T06:33:50.777Z,30.40
2023-02-11T06:36:21.130Z,29.13
2023-02-11T06:38:51.235Z,28.00
2023-02-11T06:41:20.356Z,26.57
2023-02-11T06:43:48.818Z,25.93
2023-02-11T06:46:17.270Z,30.90
2023-02-11T06:48:45.557Z,29.80
2023-02-11T06:51:14.918Z,24.00
2023-02-11T06:53:45.154Z,28.60
2023-02-11T06:56:16.178Z,31.93
2023-02-11T06:58:44.284Z,32.57
2023-02-11T07:01:14.137Z,30.67
2023-02-11T07:04:00.839Z,27.13
2023-02-11T07:06:29.762Z,29.03
2023-02-11T07:08:58.028Z,28.30
2023-02-11T07:11:29.399Z,28.57
2023-02-11T07:14:00.811Z,30.17
2023-02-11T07:16:28.836Z,30.50
2023-02-11T07:18:57.257Z,28.67
2023-02-11T07:21:25.616Z,31.80
2023-02-11T07:23:53.963Z,32.07
2023-02-11T07:26:23.806Z,25.97
2023-02-11T07:28:53.760Z,28.07
2023-02-11T07:31:23.622Z,25.87
2023-02-11T07:33:52.988Z,27.17
2023-02-11T07:36:21.186Z,27.80
2023-02-11T07:38:49.719Z,25.50
2023-02-11T07:41:19.323Z,24.87
2023-02-11T07:43:47.376Z,28.10
2023-02-11T07:46:18.608Z,28.00
2023-02-11T07:48:46.566Z,29.83
2023-02-11T07:51:19.096Z,25.43
2023-02-11T07:53:48.055Z,27.13
2023-02-11T07:56:17.437Z,30.57
2023-02-11T07:58:46.061Z,24.83
2023-02-11T08:01:17.365Z,27.77
2023-02-11T08:03:45.575Z,28.87
2023-02-11T08:06:15.340Z,27.27
2023-02-11T08:08:44.189Z,27.93
2023-02-11T08:11:15.022Z,24.77
2023-02-11T08:13:43.620Z,26.40
2023-02-11T08:16:20.145Z,28.10
2023-02-11T08:19:16.314Z,27.00
2023-02-11T08:21:44.922Z,28.20
2023-02-11T08:24:13.720Z,31.67
2023-02-11T08:26:42.006Z,29.23
2023-02-11T08:29:12.461Z,30.83
2023-02-11T08:31:50.952Z,25.37
2023-02-11T08:34:19.831Z,25.97
2023-02-11T08:36:48.737Z,26.13
2023-02-11T08:39:20.227Z,23.03
2023-02-11T08:41:49.910Z,24.73
2023-02-11T08:44:19.639Z,26.60
2023-02-11T08:46:49.365Z,26.67
2023-02-11T08:49:17.762Z,21.87
2023-02-11T08:51:46.281Z,20.00
2023-02-11T08:54:14.730Z,19.67
2023-02-11T08:56:43.226Z,19.37
2023-02-11T08:59:14.321Z,21.73
2023-02-11T09:01:44.143Z,18.20
2023-02-11T09:04:13.910Z,17.70
2023-02-11T09:06:42.594Z,18.80
2023-02-11T09:09:13.483Z,18.70
2023-02-11T09:11:42.826Z,19.70
2023-02-11T09:14:18.184Z,13.77
2023-02-11T09:16:49.667Z,17.40
2023-02-11T09:19:19.846Z,17.27
2023-02-11T09:21:48.219Z,17.07
2023-02-11T09:24:16.459Z,25.90
2023-02-11T09:26:44.524Z,27.73
2023-02-11T09:29:12.821Z,26.97
2023-02-11T09:31:41.141Z,25.57
2023-02-11T09:34:09.736Z,27.30
2023-02-11T09:36:40.382Z,28.10
2023-02-11T09:39:10.806Z,31.37
2023-02-11T09:41:43.878Z,34.57
2023-02-11T09:44:20.164Z,26.57
2023-02-11T09:46:54.706Z,28.10
2023-02-11T09:49:40.542Z,33.07
2023-02-11T09:52:18.243Z,31.87
2023-02-11T09:54:54.212Z,27.30
2023-02-11T09:57:28.602Z,30.70
2023-02-11T09:59:58.128Z,30.77
2023-02-11T10:02:28.902Z,27.33
2023-02-11T10:05:19.621Z,28.30
2023-02-11T10:07:53.539Z,28.83
2023-02-11T10:10:34.474Z,29.60
2023-02-11T10:13:16.367Z,27.50
2023-02-11T10:15:49.666Z,29.70
2023-02-11T10:18:35.932Z,29.73
2023-02-11T10:21:14.938Z,29.57
2023-02-11T10:23:48.411Z,27.90
2023-02-11T10:26:18.202Z,31.07
2023-02-11T10:28:48.959Z,28.13
2023-02-11T10:31:20.892Z,30.77
2023-02-11T10:33:53.597Z,28.30
2023-02-11T10:36:24.730Z,33.57
2023-02-11T10:38:54.353Z,32.63
2023-02-11T10:41:25.739Z,36.70
2023-02-11T10:43:54.046Z,34.90
2023-02-11T10:46:27.759Z,31.17
2023-02-11T10:48:56.091Z,31.93
2023-02-11T10:51:25.873Z,33.73
2023-02-11T10:54:14.328Z,27.07
2023-02-11T10:56:47.095Z,33.13
2023-02-11T10:59:21.377Z,29.70
2023-02-11T11:01:52.136Z,34.80
2023-02-11T11:04:35.576Z,29.03
2023-02-11T11:07:20.488Z,29.77
2023-02-11T11:09:53.166Z,33.80
2023-02-11T11:12:40.277Z,30.50
2023-02-11T11:15:19.905Z,30.87
2023-02-11T11:17:48.240Z,33.30
2023-02-11T11:20:28.450Z,37.37
2023-02-11T11:23:12.457Z,34.53
2023-02-11T11:25:44.221Z,29.63
2023-02-11T11:28:21.622Z,33.43
2023-02-11T11:30:50.511Z,30.20
2023-02-11T11:33:23.082Z,30.93
2023-02-11T11:36:02.773Z,32.57
2023-02-11T11:38:31.489Z,34.80
2023-02-11T11:41:21.674Z,31.20
2023-02-11T11:44:01.567Z,34.60
2023-02-11T11:46:32.539Z,28.23
2023-02-11T11:49:24.308Z,30.03
2023-02-11T11:51:58.052Z,29.53
2023-02-11T11:54:28.845Z,27.70
2023-02-11T11:57:03.967Z,33.07
2023-02-11T11:59:32.133Z,27.87
2023-02-11T12:02:19.337Z,33.00
2023-02-11T12:04:57.730Z,31.10
2023-02-11T12:07:35.189Z,28.40
2023-02-11T12:10:27.724Z,28.87
2023-02-11T12:13:04.616Z,27.30
2023-02-11T12:15:37.173Z,31.20
2023-02-11T12:18:21.539Z,29.53
2023-02-11T12:21:01.004Z,29.60
2023-02-11T12:23:42.648Z,27.60
2023-02-11T12:26:14.986Z,29.43
2023-02-11T12:28:55.000Z,27.37
2023-02-11T12:31:30.917Z,28.93
2023-02-11T12:34:09.504Z,30.00
2023-02-11T12:36:54.359Z,25.93
2023-02-11T12:39:39.737Z,26.67
2023-02-11T12:42:40.535Z,28.00
2023-02-11T12:45:22.836Z,25.63
2023-02-11T12:48:02.097Z,26.30
2023-02-11T12:50:37.553Z,20.57
2023-02-11T12:53:23.914Z,19.87
2023-02-11T12:55:57.822Z,20.63
2023-02-11T12:58:42.810Z,21.93
2023-02-11T13:01:18.436Z,22.60
2023-02-11T13:03:49.719Z,22.07
2023-02-11T13:06:20.562Z,21.67
2023-02-11T13:08:50.612Z,21.40
2023-02-11T13:11:21.689Z,24.07
2023-02-11T13:13:54.036Z,22.13
2023-02-11T13:16:30.960Z,22.40
2023-02-11T13:19:03.846Z,23.60
2023-02-11T13:21:49.373Z,24.40
2023-02-11T13:24:25.121Z,24.13
2023-02-11T13:27:01.800Z,24.67
2023-02-11T13:29:40.093Z,25.73
2023-02-11T13:32:12.372Z,24.60
2023-02-11T13:35:00.086Z,22.77
2023-02-11T13:37:32.668Z,26.97
2023-02-11T13:40:03.239Z,25.50
2023-02-11T13:42:32.671Z,26.30
2023-02-11T13:45:01.611Z,23.97
2023-02-11T13:47:33.171Z,24.57
2023-02-11T13:50:02.073Z,24.63
2023-02-11T13:52:32.085Z,24.30
2023-02-11T13:55:09.170Z,25.63
2023-02-11T13:57:39.984Z,23.60
2023-02-11T14:00:50.199Z,27.97
2023-02-11T14:03:55.609Z,25.67
2023-02-11T14:06:46.567Z,24.27
2023-02-11T14:09:34.835Z,25.90
2023-02-11T14:12:24.877Z,23.77
2023-02-11T14:15:19.010Z,24.97
2023-02-11T14:17:47.704Z,24.17
2023-02-11T14:20:44.104Z,26.77
2023-02-11T14:23:24.747Z,26.37
2023-02-11T14:26:19.926Z,28.30
2023-02-11T14:28:49.857Z,29.10
2023-02-11T14:31:21.386Z,27.63
2023-02-11T14:34:05.373Z,27.07
2023-02-11T14:36:49.037Z,28.33
2023-02-11T14:39:27.895Z,27.13
2023-02-11T14:41:57.263Z,27.87
2023-02-11T14:44:27.180Z,27.63
2023-02-11T14:46:56.171Z,26.50
2023-02-11T14:49:28.202Z,28.67
2023-02-11T14:52:01.473Z,26.47
2023-02-11T14:54:30.334Z,28.57
2023-02-11T14:57:14.833Z,26.00
2023-02-11T14:59:59.070Z,27.60
2023-02-11T15:02:33.035Z,26.73
2023-02-11T15:05:22.771Z,28.80
2023-02-11T15:07:54.892Z,30.27
2023-02-11T15:10:29.905Z,29.80
2023-02-11T15:12:59.228Z,29.97
2023-02-11T15:15:27.445Z,28.13
2023-02-11T15:17:56.449Z,27.17
2023-02-11T15:20:28.050Z,27.27
2023-02-11T15:23:00.522Z,26.50
2023-02-11T15:25:28.916Z,25.93
2023-02-11T15:27:58.299Z,25.30
2023-02-11T15:30:30.237Z,25.77
2023-02-11T15:33:00.321Z,24.63
2023-02-11T15:35:30.450Z,25.50
2023-02-11T15:38:01.005Z,27.57
2023-02-11T15:40:32.357Z,24.73
2023-02-11T15:43:02.669Z,26.83
2023-02-11T15:45:32.476Z,24.80
2023-02-11T15:48:07.013Z,27.40
2023-02-11T15:50:37.524Z,24.93
2023-02-11T15:53:20.885Z,24.43
2023-02-11T15:55:50.299Z,25.67
2023-02-11T15:58:18.664Z,26.07
2023-02-11T16:00:49.397Z,27.57
2023-02-11T16:03:22.243Z,25.60
2023-02-11T16:05:50.508Z,24.30
2023-02-11T16:08:25.607Z,26.40
2023-02-11T16:10:58.844Z,24.67
2023-02-11T16:13:30.267Z,25.43
2023-02-11T16:16:00.877Z,26.63
2023-02-11T16:18:40.275Z,25.07
2023-02-11T16:21:15.851Z,27.30
2023-02-11T16:23:51.695Z,24.27
2023-02-11T16:26:26.834Z,25.63
2023-02-11T16:28:55.700Z,23.07
2023-02-11T16:31:24.079Z,22.00
2023-02-11T16:33:52.278Z,24.70
2023-02-11T16:36:20.454Z,27.77
2023-02-11T16:38:50.442Z,25.53
2023-02-11T16:41:18.594Z,24.50
2023-02-11T16:43:46.616Z,26.40
2023-02-11T16:46:16.127Z,25.67
2023-02-11T16:48:45.699Z,27.77
2023-02-11T16:51:14.241Z,24.90
2023-02-11T16:53:42.732Z,26.10
2023-02-11T16:56:16.618Z,23.60
2023-02-11T16:58:45.114Z,27.03
2023-02-11T17:01:17.379Z,27.30
2023-02-11T17:03:45.817Z,29.03
2023-02-11T17:06:14.690Z,25.97
2023-02-11T17:08:43.132Z,27.33
2023-02-11T17:11:11.341Z,25.63
2023-02-11T17:13:42.524Z,29.83
2023-02-11T17:16:18.283Z,27.45
2023-02-11T17:18:48.858Z,26.20
2023-02-11T17:21:29.725Z,25.87
2023-02-11T17:24:01.039Z,25.43
2023-02-11T17:26:41.373Z,26.63
2023-02-11T17:29:15.638Z,25.73
2023-02-11T17:31:52.719Z,26.13
2023-02-11T17:34:21.474Z,25.73
2023-02-11T17:36:53.446Z,28.63
2023-02-11T17:39:22.009Z,26.33
2023-02-11T17:41:56.625Z,26.33
2023-02-11T17:44:26.234Z,28.10
2023-02-11T17:46:57.233Z,28.30
2023-02-11T17:49:35.506Z,27.20
2023-02-11T17:52:06.260Z,25.67
2023-02-11T17:54:39.780Z,27.70
2023-02-11T17:57:14.403Z,26.43
2023-02-11T17:59:49.620Z,27.27
2023-02-11T18:02:21.940Z,26.87
2023-02-11T18:04:50.817Z,29.70
2023-02-11T18:07:19.971Z,31.00
2023-02-11T18:09:49.469Z,32.37
2023-02-11T18:12:25.241Z,30.97
2023-02-11T18:14:58.250Z,32.17
2023-02-11T18:17:35.699Z,27.03
2023-02-11T18:20:05.246Z,29.17
2023-02-11T18:22:48.231Z,31.00
2023-02-11T18:25:17.535Z,30.93
2023-02-11T18:27:55.369Z,30.27
2023-02-11T18:30:42.852Z,32.13
2023-02-11T18:33:18.624Z,28.23
2023-02-11T18:35:49.335Z,27.43
2023-02-11T18:38:21.503Z,29.47
2023-02-11T18:40:54.878Z,28.93
2023-02-11T18:43:23.569Z,32.37
2023-02-11T18:45:53.456Z,28.43
2023-02-11T18:48:29.839Z,28.50
2023-02-11T18:51:01.701Z,29.47
2023-02-11T18:53:29.851Z,33.67
2023-02-11T18:56:01.271Z,29.93
2023-02-11T18:58:32.213Z,31.40
2023-02-11T19:01:23.961Z,33.03
2023-02-11T19:03:55.671Z,33.27
2023-02-11T19:06:29.689Z,34.60
2023-02-11T19:09:05.173Z,36.43
2023-02-11T19:11:50.543Z,31.40
2023-02-11T19:14:21.624Z,34.97
2023-02-11T19:16:55.604Z,34.27
2023-02-11T19:19:28.015Z,34.57
2023-02-11T19:22:01.378Z,33.23
2023-02-11T19:24:35.214Z,34.40
2023-02-11T19:27:09.151Z,30.83
2023-02-11T19:29:42.871Z,33.90
2023-02-11T19:32:12.401Z,35.93
2023-02-11T19:34:46.506Z,39.27
2023-02-11T19:37:16.735Z,34.03
2023-02-11T19:39:47.840Z,32.83
2023-02-11T19:42:25.824Z,33.07
2023-02-11T19:44:58.476Z,34.83
2023-02-11T19:47:32.216Z,35.63
2023-02-11T19:50:01.442Z,39.10
2023-02-11T19:52:30.001Z,34.93
2023-02-11T19:55:00.950Z,36.23
2023-02-11T19:57:33.930Z,37.07
2023-02-11T20:00:03.808Z,38.27
2023-02-11T20:02:46.106Z,40.47
2023-02-11T20:05:14.328Z,35.90
2023-02-11T20:07:45.779Z,35.97
2023-02-11T20:10:14.165Z,37.53
2023-02-11T20:12:45.147Z,37.43
2023-02-11T20:15:16.290Z,38.33
2023-02-11T20:17:45.872Z,37.70
2023-02-11T20:20:15.810Z,38.37
2023-02-11T20:22:46.661Z,36.80
2023-02-11T20:25:17.659Z,37.27
2023-02-11T20:27:46.892Z,39.90
2023-02-11T20:30:17.035Z,37.90
2023-02-11T20:32:51.892Z,38.00
2023-02-11T20:35:22.074Z,39.20
2023-02-11T20:37:50.156Z,37.50
2023-02-11T20:40:19.562Z,37.30
2023-02-11T20:42:47.797Z,40.60
2023-02-11T20:45:18.213Z,38.93
2023-02-11T20:47:48.947Z,38.50
2023-02-11T20:50:25.807Z,35.53
2023-02-11T20:52:55.789Z,38.47
2023-02-11T20:55:26.182Z,36.90
2023-02-11T20:57:59.976Z,38.03
2023-02-11T21:00:28.254Z,37.00
2023-02-11T21:02:57.875Z,39.10
2023-02-11T21:05:28.008Z,39.80
2023-02-11T21:07:57.474Z,36.67
2023-02-11T21:10:25.978Z,41.10
2023-02-11T21:12:56.536Z,35.30
2023-02-11T21:15:28.667Z,35.80
2023-02-11T21:18:14.605Z,40.50
2023-02-11T21:20:46.301Z,38.57
2023-02-11T21:23:19.900Z,38.67
2023-02-11T21:25:49.478Z,35.57
2023-02-11T21:28:18.810Z,33.37
2023-02-11T21:30:46.955Z,34.63
2023-02-11T21:33:21.809Z,34.47
2023-02-11T21:35:53.642Z,35.37
2023-02-11T21:38:22.257Z,34.60
2023-02-11T21:40:56.408Z,31.97
2023-02-11T21:43:27.113Z,35.63
2023-02-11T21:45:55.435Z,35.97
2023-02-11T21:48:27.137Z,38.00
2023-02-11T21:50:55.364Z,34.87
2023-02-11T21:53:25.249Z,35.50
2023-02-11T21:56:04.730Z,33.97
2023-02-11T21:58:35.451Z,35.80
2023-02-11T22:01:06.227Z,34.50
2023-02-11T22:03:35.641Z,37.47
2023-02-11T22:06:07.756Z,33.87
2023-02-11T22:08:40.855Z,40.50
2023-02-11T22:11:14.646Z,35.93
2023-02-11T22:13:46.429Z,34.67
2023-02-11T22:16:17.857Z,37.37
2023-02-11T22:18:47.407Z,39.40
2023-02-11T22:21:17.064Z,39.90
2023-02-11T22:23:45.736Z,37.90
2023-02-11T22:26:15.645Z,38.87
2023-02-11T22:28:44.145Z,34.50
2023-02-11T22:31:13.474Z,37.93
2023-02-11T22:33:42.043Z,35.10
2023-02-11T22:36:15.716Z,35.97
2023-02-11T22:38:43.821Z,41.07
2023-02-11T22:41:12.729Z,40.97
2023-02-11T22:43:42.785Z,38.03
2023-02-11T22:46:13.215Z,38.57
2023-02-11T22:48:44.199Z,37.20
2023-02-11T22:51:15.561Z,35.67
2023-02-11T22:53:44.470Z,36.60
2023-02-11T22:56:15.873Z,36.03
2023-02-11T22:58:44.143Z,36.23
2023-02-11T23:01:12.699Z,38.57
2023-02-11T23:03:41.472Z,37.57
2023-02-11T23:06:10.533Z,36.07
2023-02-11T23:08:40.543Z,36.50
2023-02-11T23:11:10.462Z,36.83
2023-02-11T23:13:40.401Z,41.63
2023-02-11T23:16:10.526Z,42.20
2023-02-11T23:18:42.459Z,42.30
2023-02-11T23:21:12.953Z,38.70
2023-02-11T23:23:42.764Z,39.23
2023-02-11T23:26:11.481Z,37.60
2023-02-11T23:28:39.658Z,39.43
2023-02-11T23:31:15.838Z,40.00
2023-02-11T23:33:44.071Z,38.50
2023-02-11T23:36:12.357Z,46.87
2023-02-11T23:38:42.166Z,39.30
2023-02-11T23:41:10.243Z,42.30
2023-02-11T23:43:38.314Z,42.83
2023-02-11T23:46:07.466Z,43.17
2023-02-11T23:48:36.027Z,44.20
2023-02-11T23:51:04.736Z,40.13
2023-02-11T23:53:32.793Z,41.83
2023-02-11T23:56:02.241Z,42.30
2023-02-11T23:58:30.623Z,39.10
